sensor_id;sensor_type;location;lat;lon;timestamp;P1;durP1;ratioP1;P2;durP2;ratioP2
30378;SDS011;17168;49.164;9.060;2022-08-05T00:01:30;18.30;;;3.53;;
30378;SDS011;17168;49.164;9.060;2022-08-05T00:04:15;16.10;;;4.03;;
30378;SDS011;17168;49.164;9.060;2022-08-05T00:06:43;15.10;;;3.83;;
30378;SDS011;17168;49.164;9.060;2022-08-05T00:09:12;16.75;;;4.00;;
30378;SDS011;17168;49.164;9.060;2022-08-05T00:11:44;15.55;;;4.20;;
30378;SDS011;17168;49.164;9.060;2022-08-05T00:14:21;11.38;;;5.00;;
30378;SDS011;17168;49.164;9.060;2022-08-05T00:16:54;13.95;;;4.63;;
30378;SDS011;17168;49.164;9.060;2022-08-05T00:19:22;16.38;;;5.05;;
30378;SDS011;17168;49.164;9.060;2022-08-05T00:21:58;12.95;;;5.35;;
30378;SDS011;17168;49.164;9.060;2022-08-05T00:24:25;10.38;;;4.60;;
30378;SDS011;17168;49.164;9.060;2022-08-05T00:26:56;9.98;;;3.72;;
30378;SDS011;17168;49.164;9.060;2022-08-05T00:29:23;9.23;;;3.83;;
30378;SDS011;17168;49.164;9.060;2022-08-05T00:31:53;11.02;;;4.20;;
30378;SDS011;17168;49.164;9.060;2022-08-05T00:34:41;8.40;;;3.88;;
30378;SDS011;17168;49.164;9.060;2022-08-05T00:37:29;5.07;;;2.60;;
30378;SDS011;17168;49.164;9.060;2022-08-05T00:40:16;3.58;;;2.53;;
30378;SDS011;17168;49.164;9.060;2022-08-05T00:42:53;5.85;;;2.38;;
30378;SDS011;17168;49.164;9.060;2022-08-05T00:45:22;11.95;;;2.55;;
30378;SDS011;17168;49.164;9.060;2022-08-05T00:48:03;9.02;;;2.50;;
30378;SDS011;17168;49.164;9.060;2022-08-05T00:50:33;6.88;;;2.85;;
30378;SDS011;17168;49.164;9.060;2022-08-05T00:53:00;7.75;;;2.72;;
30378;SDS011;17168;49.164;9.060;2022-08-05T00:55:27;10.75;;;3.00;;
30378;SDS011;17168;49.164;9.060;2022-08-05T00:58:08;10.23;;;2.85;;
30378;SDS011;17168;49.164;9.060;2022-08-05T01:00:36;8.52;;;2.90;;
30378;SDS011;17168;49.164;9.060;2022-08-05T01:03:05;9.40;;;2.90;;
30378;SDS011;17168;49.164;9.060;2022-08-05T01:05:34;7.90;;;2.95;;
30378;SDS011;17168;49.164;9.060;2022-08-05T01:08:03;8.43;;;2.92;;
30378;SDS011;17168;49.164;9.060;2022-08-05T01:10:51;14.90;;;2.72;;
30378;SDS011;17168;49.164;9.060;2022-08-05T01:13:24;8.88;;;2.90;;
30378;SDS011;17168;49.164;9.060;2022-08-05T01:16:19;8.57;;;2.50;;
30378;SDS011;17168;49.164;9.060;2022-08-05T01:18:53;10.93;;;2.33;;
30378;SDS011;17168;49.164;9.060;2022-08-05T01:21:35;3.55;;;2.53;;
30378;SDS011;17168;49.164;9.060;2022-08-05T01:24:21;8.07;;;2.90;;
30378;SDS011;17168;49.164;9.060;2022-08-05T01:27:01;17.40;;;2.67;;
30378;SDS011;17168;49.164;9.060;2022-08-05T01:29:51;11.13;;;2.78;;
30378;SDS011;17168;49.164;9.060;2022-08-05T01:32:24;20.52;;;3.40;;
30378;SDS011;17168;49.164;9.060;2022-08-05T01:34:53;10.15;;;3.15;;
30378;SDS011;17168;49.164;9.060;2022-08-05T01:37:25;16.50;;;3.05;;
30378;SDS011;17168;49.164;9.060;2022-08-05T01:40:02;13.48;;;3.05;;
30378;SDS011;17168;49.164;9.060;2022-08-05T01:42:32;14.05;;;3.17;;
30378;SDS011;17168;49.164;9.060;2022-08-05T01:45:04;11.30;;;3.75;;
30378;SDS011;17168;49.164;9.060;2022-08-05T01:47:34;15.38;;;3.53;;
30378;SDS011;17168;49.164;9.060;2022-08-05T01:50:08;7.95;;;3.38;;
30378;SDS011;17168;49.164;9.060;2022-08-05T01:55:09;15.25;;;3.70;;
30378;SDS011;17168;49.164;9.060;2022-08-05T01:57:40;11.77;;;3.40;;
30378;SDS011;17168;49.164;9.060;2022-08-05T02:00:32;9.32;;;3.45;;
30378;SDS011;17168;49.164;9.060;2022-08-05T02:03:03;12.80;;;3.55;;
30378;SDS011;17168;49.164;9.060;2022-08-05T02:05:53;6.32;;;3.17;;
30378;SDS011;17168;49.164;9.060;2022-08-05T02:08:28;12.68;;;3.22;;
30378;SDS011;17168;49.164;9.060;2022-08-05T02:10:58;10.25;;;2.80;;
30378;SDS011;17168;49.164;9.060;2022-08-05T02:13:31;9.55;;;3.15;;
30378;SDS011;17168;49.164;9.060;2022-08-05T02:16:21;13.73;;;3.40;;
30378;SDS011;17168;49.164;9.060;2022-08-05T02:18:53;9.02;;;3.30;;
30378;SDS011;17168;49.164;9.060;2022-08-05T02:21:24;20.10;;;3.47;;
30378;SDS011;17168;49.164;9.060;2022-08-05T02:24:04;10.50;;;3.35;;
30378;SDS011;17168;49.164;9.060;2022-08-05T02:26:38;9.85;;;3.05;;
30378;SDS011;17168;49.164;9.060;2022-08-05T02:29:21;14.77;;;3.10;;
30378;SDS011;17168;49.164;9.060;2022-08-05T02:32:11;4.22;;;2.92;;
30378;SDS011;17168;49.164;9.060;2022-08-05T02:34:54;7.75;;;3.17;;
30378;SDS011;17168;49.164;9.060;2022-08-05T02:37:22;10.68;;;3.42;;
30378;SDS011;17168;49.164;9.060;2022-08-05T02:39:50;6.53;;;3.00;;
30378;SDS011;17168;49.164;9.060;2022-08-05T02:42:18;12.57;;;3.63;;
30378;SDS011;17168;49.164;9.060;2022-08-05T02:44:52;13.13;;;3.75;;
30378;SDS011;17168;49.164;9.060;2022-08-05T02:47:23;6.00;;;3.22;;
30378;SDS011;17168;49.164;9.060;2022-08-05T02:50:12;12.35;;;3.38;;
30378;SDS011;17168;49.164;9.060;2022-08-05T02:52:43;8.75;;;2.97;;
30378;SDS011;17168;49.164;9.060;2022-08-05T02:55:12;12.85;;;3.10;;
30378;SDS011;17168;49.164;9.060;2022-08-05T02:57:42;11.70;;;3.50;;
30378;SDS011;17168;49.164;9.060;2022-08-05T03:00:30;8.05;;;3.42;;
30378;SDS011;17168;49.164;9.060;2022-08-05T03:03:02;6.82;;;3.50;;
30378;SDS011;17168;49.164;9.060;2022-08-05T03:05:36;9.05;;;3.47;;
30378;SDS011;17168;49.164;9.060;2022-08-05T03:08:24;18.63;;;3.45;;
30378;SDS011;17168;49.164;9.060;2022-08-05T03:10:54;10.60;;;3.30;;
30378;SDS011;17168;49.164;9.060;2022-08-05T03:13:41;8.50;;;3.40;;
30378;SDS011;17168;49.164;9.060;2022-08-05T03:16:28;16.55;;;3.95;;
30378;SDS011;17168;49.164;9.060;2022-08-05T03:18:58;8.25;;;3.20;;
30378;SDS011;17168;49.164;9.060;2022-08-05T03:21:25;7.28;;;3.30;;
30378;SDS011;17168;49.164;9.060;2022-08-05T03:23:58;9.00;;;3.03;;
30378;SDS011;17168;49.164;9.060;2022-08-05T03:26:27;7.20;;;3.35;;
30378;SDS011;17168;49.164;9.060;2022-08-05T03:28:57;8.02;;;3.20;;
30378;SDS011;17168;49.164;9.060;2022-08-05T03:31:24;6.75;;;3.22;;
30378;SDS011;17168;49.164;9.060;2022-08-05T03:34:12;9.15;;;3.42;;
30378;SDS011;17168;49.164;9.060;2022-08-05T03:36:39;7.30;;;2.95;;
30378;SDS011;17168;49.164;9.060;2022-08-05T03:39:06;10.57;;;3.53;;
30378;SDS011;17168;49.164;9.060;2022-08-05T03:41:38;14.27;;;3.67;;
30378;SDS011;17168;49.164;9.060;2022-08-05T03:44:12;7.72;;;3.05;;
30378;SDS011;17168;49.164;9.060;2022-08-05T03:46:45;9.38;;;3.38;;
30378;SDS011;17168;49.164;9.060;2022-08-05T03:49:15;8.88;;;3.30;;
30378;SDS011;17168;49.164;9.060;2022-08-05T03:51:42;10.90;;;3.35;;
30378;SDS011;17168;49.164;9.060;2022-08-05T03:54:36;6.95;;;3.53;;
30378;SDS011;17168;49.164;9.060;2022-08-05T03:57:27;10.70;;;3.40;;
30378;SDS011;17168;49.164;9.060;2022-08-05T04:00:08;9.70;;;3.30;;
30378;SDS011;17168;49.164;9.060;2022-08-05T04:02:41;7.50;;;4.07;;
30378;SDS011;17168;49.164;9.060;2022-08-05T04:05:25;7.07;;;3.50;;
30378;SDS011;17168;49.164;9.060;2022-08-05T04:07:59;14.32;;;4.18;;
30378;SDS011;17168;49.164;9.060;2022-08-05T04:10:28;9.30;;;3.72;;
30378;SDS011;17168;49.164;9.060;2022-08-05T04:13:03;8.88;;;3.60;;
30378;SDS011;17168;49.164;9.060;2022-08-05T04:15:32;9.00;;;4.07;;
30378;SDS011;17168;49.164;9.060;2022-08-05T04:18:02;13.63;;;4.22;;
30378;SDS011;17168;49.164;9.060;2022-08-05T04:20:34;9.52;;;4.05;;
30378;SDS011;17168;49.164;9.060;2022-08-05T04:23:00;10.88;;;3.70;;
30378;SDS011;17168;49.164;9.060;2022-08-05T04:25:28;12.52;;;4.25;;
30378;SDS011;17168;49.164;9.060;2022-08-05T04:28:15;7.93;;;3.67;;
30378;SDS011;17168;49.164;9.060;2022-08-05T04:30:42;7.85;;;3.97;;
30378;SDS011;17168;49.164;9.060;2022-08-05T04:33:10;11.95;;;4.38;;
30378;SDS011;17168;49.164;9.060;2022-08-05T04:35:39;13.45;;;4.38;;
30378;SDS011;17168;49.164;9.060;2022-08-05T04:38:26;14.15;;;4.28;;
30378;SDS011;17168;49.164;9.060;2022-08-05T04:41:05;15.18;;;4.22;;
30378;SDS011;17168;49.164;9.060;2022-08-05T04:43:34;13.98;;;4.15;;
30378;SDS011;17168;49.164;9.060;2022-08-05T04:46:02;12.38;;;4.28;;
30378;SDS011;17168;49.164;9.060;2022-08-05T04:48:30;16.67;;;3.97;;
30378;SDS011;17168;49.164;9.060;2022-08-05T04:50:58;18.02;;;4.20;;
30378;SDS011;17168;49.164;9.060;2022-08-05T04:53:36;10.18;;;3.97;;
30378;SDS011;17168;49.164;9.060;2022-08-05T04:56:04;15.85;;;4.78;;
30378;SDS011;17168;49.164;9.060;2022-08-05T04:58:51;9.48;;;4.05;;
30378;SDS011;17168;49.164;9.060;2022-08-05T05:01:18;8.45;;;4.30;;
30378;SDS011;17168;49.164;9.060;2022-08-05T05:04:05;10.77;;;4.25;;
30378;SDS011;17168;49.164;9.060;2022-08-05T05:06:34;7.32;;;4.30;;
30378;SDS011;17168;49.164;9.060;2022-08-05T05:09:09;21.80;;;4.47;;
30378;SDS011;17168;49.164;9.060;2022-08-05T05:11:42;15.10;;;4.40;;
30378;SDS011;17168;49.164;9.060;2022-08-05T05:14:22;10.88;;;3.80;;
30378;SDS011;17168;49.164;9.060;2022-08-05T05:16:57;13.90;;;3.50;;
30378;SDS011;17168;49.164;9.060;2022-08-05T05:19:24;10.02;;;3.92;;
30378;SDS011;17168;49.164;9.060;2022-08-05T05:22:03;6.55;;;3.38;;
30378;SDS011;17168;49.164;9.060;2022-08-05T05:24:50;12.07;;;3.50;;
30378;SDS011;17168;49.164;9.060;2022-08-05T05:27:24;13.40;;;3.85;;
30378;SDS011;17168;49.164;9.060;2022-08-05T05:30:11;9.30;;;3.63;;
30378;SDS011;17168;49.164;9.060;2022-08-05T05:32:54;8.68;;;3.50;;
30378;SDS011;17168;49.164;9.060;2022-08-05T05:35:21;9.20;;;3.45;;
30378;SDS011;17168;49.164;9.060;2022-08-05T05:37:50;8.48;;;3.67;;
30378;SDS011;17168;49.164;9.060;2022-08-05T05:40:28;7.30;;;3.30;;
30378;SDS011;17168;49.164;9.060;2022-08-05T05:42:57;10.45;;;3.50;;
30378;SDS011;17168;49.164;9.060;2022-08-05T05:45:27;9.57;;;3.75;;
30378;SDS011;17168;49.164;9.060;2022-08-05T05:47:56;8.48;;;4.22;;
30378;SDS011;17168;49.164;9.060;2022-08-05T05:50:32;14.07;;;4.30;;
30378;SDS011;17168;49.164;9.060;2022-08-05T05:53:11;18.20;;;5.63;;
30378;SDS011;17168;49.164;9.060;2022-08-05T05:55:48;11.35;;;4.03;;
30378;SDS011;17168;49.164;9.060;2022-08-05T05:58:25;10.73;;;3.90;;
30378;SDS011;17168;49.164;9.060;2022-08-05T06:00:57;10.60;;;4.20;;
30378;SDS011;17168;49.164;9.060;2022-08-05T06:03:38;10.15;;;4.28;;
30378;SDS011;17168;49.164;9.060;2022-08-05T06:06:25;11.40;;;4.00;;
30378;SDS011;17168;49.164;9.060;2022-08-05T06:08:54;8.82;;;4.38;;
30378;SDS011;17168;49.164;9.060;2022-08-05T06:11:21;10.05;;;3.85;;
30378;SDS011;17168;49.164;9.060;2022-08-05T06:13:48;9.40;;;4.07;;
30378;SDS011;17168;49.164;9.060;2022-08-05T06:16:19;5.50;;;3.42;;
30378;SDS011;17168;49.164;9.060;2022-08-05T06:18:57;6.55;;;2.85;;
30378;SDS011;17168;49.164;9.060;2022-08-05T06:21:27;8.23;;;3.08;;
30378;SDS011;17168;49.164;9.060;2022-08-05T06:24:04;8.60;;;3.15;;
30378;SDS011;17168;49.164;9.060;2022-08-05T06:26:37;9.00;;;2.55;;
30378;SDS011;17168;49.164;9.060;2022-08-05T06:29:17;6.32;;;3.10;;
30378;SDS011;17168;49.164;9.060;2022-08-05T06:32:04;4.50;;;2.67;;
30378;SDS011;17168;49.164;9.060;2022-08-05T06:34:46;8.63;;;3.58;;
30378;SDS011;17168;49.164;9.060;2022-08-05T06:37:18;8.07;;;3.63;;
30378;SDS011;17168;49.164;9.060;2022-08-05T06:40:07;9.85;;;3.80;;
30378;SDS011;17168;49.164;9.060;2022-08-05T06:42:35;7.22;;;3.92;;
30378;SDS011;17168;49.164;9.060;2022-08-05T06:45:05;7.07;;;3.60;;
30378;SDS011;17168;49.164;9.060;2022-08-05T06:47:34;11.23;;;3.35;;
30378;SDS011;17168;49.164;9.060;2022-08-05T06:50:21;6.70;;;2.88;;
30378;SDS011;17168;49.164;9.060;2022-08-05T06:52:48;7.82;;;3.20;;
30378;SDS011;17168;49.164;9.060;2022-08-05T06:55:36;6.30;;;2.92;;
30378;SDS011;17168;49.164;9.060;2022-08-05T06:58:07;10.52;;;3.00;;
30378;SDS011;17168;49.164;9.060;2022-08-05T07:00:54;6.70;;;3.17;;
30378;SDS011;17168;49.164;9.060;2022-08-05T07:03:23;10.85;;;3.03;;
30378;SDS011;17168;49.164;9.060;2022-08-05T07:05:58;6.30;;;3.00;;
30378;SDS011;17168;49.164;9.060;2022-08-05T07:08:31;8.35;;;3.17;;
30378;SDS011;17168;49.164;9.060;2022-08-05T07:10:59;5.20;;;3.17;;
30378;SDS011;17168;49.164;9.060;2022-08-05T07:13:27;6.50;;;3.00;;
30378;SDS011;17168;49.164;9.060;2022-08-05T07:16:24;3.97;;;2.72;;
30378;SDS011;17168;49.164;9.060;2022-08-05T07:19:30;7.32;;;3.30;;
30378;SDS011;17168;49.164;9.060;2022-08-05T07:22:17;5.03;;;2.90;;
30378;SDS011;17168;49.164;9.060;2022-08-05T07:24:53;6.40;;;3.22;;
30378;SDS011;17168;49.164;9.060;2022-08-05T07:27:21;4.68;;;3.03;;
30378;SDS011;17168;49.164;9.060;2022-08-05T07:29:53;9.73;;;2.95;;
30378;SDS011;17168;49.164;9.060;2022-08-05T07:32:42;5.43;;;2.78;;
30378;SDS011;17168;49.164;9.060;2022-08-05T07:35:09;7.15;;;3.22;;
30378;SDS011;17168;49.164;9.060;2022-08-05T07:37:57;6.38;;;3.05;;
30378;SDS011;17168;49.164;9.060;2022-08-05T07:40:24;5.32;;;2.95;;
30378;SDS011;17168;49.164;9.060;2022-08-05T07:42:59;6.13;;;2.88;;
30378;SDS011;17168;49.164;9.060;2022-08-05T07:45:45;5.63;;;3.10;;
30378;SDS011;17168;49.164;9.060;2022-08-05T07:48:23;5.25;;;2.60;;
30378;SDS011;17168;49.164;9.060;2022-08-05T07:51:10;8.27;;;2.63;;
30378;SDS011;17168;49.164;9.060;2022-08-05T07:53:57;5.45;;;3.20;;
30378;SDS011;17168;49.164;9.060;2022-08-05T07:56:27;5.40;;;2.90;;
30378;SDS011;17168;49.164;9.060;2022-08-05T07:59:15;9.88;;;3.22;;
30378;SDS011;17168;49.164;9.060;2022-08-05T08:01:47;29.08;;;3.63;;
30378;SDS011;17168;49.164;9.060;2022-08-05T08:04:22;33.60;;;3.75;;
30378;SDS011;17168;49.164;9.060;2022-08-05T08:07:02;32.30;;;3.70;;
30378;SDS011;17168;49.164;9.060;2022-08-05T08:09:32;22.20;;;3.00;;
30378;SDS011;17168;49.164;9.060;2022-08-05T08:11:59;5.05;;;2.25;;
30378;SDS011;17168;49.164;9.060;2022-08-05T08:14:41;7.38;;;2.58;;
30378;SDS011;17168;49.164;9.060;2022-08-05T08:17:12;6.50;;;2.50;;
30378;SDS011;17168;49.164;9.060;2022-08-05T08:19:46;6.78;;;2.90;;
30378;SDS011;17168;49.164;9.060;2022-08-05T08:22:34;5.22;;;2.58;;
30378;SDS011;17168;49.164;9.060;2022-08-05T08:25:01;4.00;;;2.53;;
30378;SDS011;17168;49.164;9.060;2022-08-05T08:27:41;6.32;;;3.22;;
30378;SDS011;17168;49.164;9.060;2022-08-05T08:30:14;5.25;;;2.78;;
30378;SDS011;17168;49.164;9.060;2022-08-05T08:32:59;4.18;;;2.53;;
30378;SDS011;17168;49.164;9.060;2022-08-05T08:35:33;6.90;;;2.42;;
30378;SDS011;17168;49.164;9.060;2022-08-05T08:38:17;4.75;;;2.60;;
30378;SDS011;17168;49.164;9.060;2022-08-05T08:41:02;6.32;;;2.35;;
30378;SDS011;17168;49.164;9.060;2022-08-05T08:43:32;3.80;;;2.25;;
30378;SDS011;17168;49.164;9.060;2022-08-05T08:46:21;5.53;;;2.20;;
30378;SDS011;17168;49.164;9.060;2022-08-05T08:48:52;5.07;;;2.00;;
30378;SDS011;17168;49.164;9.060;2022-08-05T08:51:40;5.00;;;2.40;;
30378;SDS011;17168;49.164;9.060;2022-08-05T08:54:28;8.10;;;2.72;;
30378;SDS011;17168;49.164;9.060;2022-08-05T08:56:57;6.70;;;2.22;;
30378;SDS011;17168;49.164;9.060;2022-08-05T08:59:24;4.50;;;2.00;;
30378;SDS011;17168;49.164;9.060;2022-08-05T09:02:00;12.00;;;2.20;;
30378;SDS011;17168;49.164;9.060;2022-08-05T09:04:34;11.43;;;2.60;;
30378;SDS011;17168;49.164;9.060;2022-08-05T09:07:22;6.97;;;2.28;;
30378;SDS011;17168;49.164;9.060;2022-08-05T09:09:54;3.72;;;2.00;;
30378;SDS011;17168;49.164;9.060;2022-08-05T09:12:22;5.43;;;1.95;;
30378;SDS011;17168;49.164;9.060;2022-08-05T09:14:55;6.35;;;2.22;;
30378;SDS011;17168;49.164;9.060;2022-08-05T09:17:33;3.95;;;2.25;;
30378;SDS011;17168;49.164;9.060;2022-08-05T09:20:07;6.53;;;1.90;;
30378;SDS011;17168;49.164;9.060;2022-08-05T09:25:45;4.10;;;1.80;;
30378;SDS011;17168;49.164;9.060;2022-08-05T09:28:28;3.08;;;1.88;;
30378;SDS011;17168;49.164;9.060;2022-08-05T09:30:59;4.80;;;2.67;;
30378;SDS011;17168;49.164;9.060;2022-08-05T09:33:54;2.95;;;2.05;;
30378;SDS011;17168;49.164;9.060;2022-08-05T09:36:25;8.75;;;1.90;;
30378;SDS011;17168;49.164;9.060;2022-08-05T09:39:18;4.07;;;2.08;;
30378;SDS011;17168;49.164;9.060;2022-08-05T09:41:53;6.82;;;2.45;;
30378;SDS011;17168;49.164;9.060;2022-08-05T09:44:33;5.07;;;1.83;;
30378;SDS011;17168;49.164;9.060;2022-08-05T09:47:08;6.45;;;2.00;;
30378;SDS011;17168;49.164;9.060;2022-08-05T09:49:43;6.95;;;2.10;;
30378;SDS011;17168;49.164;9.060;2022-08-05T09:52:28;9.35;;;2.53;;
30378;SDS011;17168;49.164;9.060;2022-08-05T09:54:57;4.00;;;1.98;;
30378;SDS011;17168;49.164;9.060;2022-08-05T09:57:45;3.45;;;2.20;;
30378;SDS011;17168;49.164;9.060;2022-08-05T10:00:13;4.45;;;2.10;;
30378;SDS011;17168;49.164;9.060;2022-08-05T10:02:45;6.72;;;2.40;;
30378;SDS011;17168;49.164;9.060;2022-08-05T10:05:15;3.88;;;1.80;;
30378;SDS011;17168;49.164;9.060;2022-08-05T10:07:49;9.48;;;1.80;;
30378;SDS011;17168;49.164;9.060;2022-08-05T10:10:38;6.78;;;1.73;;
30378;SDS011;17168;49.164;9.060;2022-08-05T10:13:24;4.55;;;1.75;;
30378;SDS011;17168;49.164;9.060;2022-08-05T10:18:57;4.28;;;1.50;;
30378;SDS011;17168;49.164;9.060;2022-08-05T10:21:27;7.40;;;1.33;;
30378;SDS011;17168;49.164;9.060;2022-08-05T10:24:05;5.35;;;1.20;;
30378;SDS011;17168;49.164;9.060;2022-08-05T10:26:36;1.45;;;1.20;;
30378;SDS011;17168;49.164;9.060;2022-08-05T10:29:18;1.92;;;1.50;;
30378;SDS011;17168;49.164;9.060;2022-08-05T10:32:06;1.52;;;1.40;;
30378;SDS011;17168;49.164;9.060;2022-08-05T10:34:53;2.80;;;1.60;;
30378;SDS011;17168;49.164;9.060;2022-08-05T10:37:27;4.47;;;1.50;;
30378;SDS011;17168;49.164;9.060;2022-08-05T10:40:13;3.38;;;1.60;;
30378;SDS011;17168;49.164;9.060;2022-08-05T10:42:53;3.47;;;1.48;;
30378;SDS011;17168;49.164;9.060;2022-08-05T10:45:25;2.97;;;1.40;;
30378;SDS011;17168;49.164;9.060;2022-08-05T10:51:17;2.97;;;1.70;;
30378;SDS011;17168;49.164;9.060;2022-08-05T10:53:53;3.22;;;1.45;;
30378;SDS011;17168;49.164;9.060;2022-08-05T10:56:24;3.80;;;1.40;;
30378;SDS011;17168;49.164;9.060;2022-08-05T10:59:01;2.45;;;1.45;;
30378;SDS011;17168;49.164;9.060;2022-08-05T11:01:53;2.80;;;1.50;;
30378;SDS011;17168;49.164;9.060;2022-08-05T11:04:41;2.25;;;1.60;;
30378;SDS011;17168;49.164;9.060;2022-08-05T11:07:09;3.38;;;1.90;;
30378;SDS011;17168;49.164;9.060;2022-08-05T11:09:43;1.90;;;1.48;;
30378;SDS011;17168;49.164;9.060;2022-08-05T11:15:17;3.45;;;1.60;;
30378;SDS011;17168;49.164;9.060;2022-08-05T11:17:46;5.93;;;1.60;;
30378;SDS011;17168;49.164;9.060;2022-08-05T11:20:37;4.65;;;1.50;;
30378;SDS011;17168;49.164;9.060;2022-08-05T11:26:23;4.13;;;1.67;;
30378;SDS011;17168;49.164;9.060;2022-08-05T11:28:54;3.13;;;1.40;;
30378;SDS011;17168;49.164;9.060;2022-08-05T11:31:29;3.58;;;1.50;;
30378;SDS011;17168;49.164;9.060;2022-08-05T11:34:24;4.30;;;1.60;;
30378;SDS011;17168;49.164;9.060;2022-08-05T11:37:01;2.17;;;1.40;;
30378;SDS011;17168;49.164;9.060;2022-08-05T11:39:49;2.88;;;1.58;;
30378;SDS011;17168;49.164;9.060;2022-08-05T11:42:27;2.13;;;1.65;;
30378;SDS011;17168;49.164;9.060;2022-08-05T11:44:59;4.53;;;1.83;;
30378;SDS011;17168;49.164;9.060;2022-08-05T11:47:30;4.97;;;1.50;;
30378;SDS011;17168;49.164;9.060;2022-08-05T11:50:15;3.03;;;1.60;;
30378;SDS011;17168;49.164;9.060;2022-08-05T11:52:42;2.38;;;1.80;;
30378;SDS011;17168;49.164;9.060;2022-08-05T11:55:14;4.07;;;1.87;;
30378;SDS011;17168;49.164;9.060;2022-08-05T11:57:45;5.60;;;1.70;;
30378;SDS011;17168;49.164;9.060;2022-08-05T12:00:32;4.68;;;1.80;;
30378;SDS011;17168;49.164;9.060;2022-08-05T12:03:16;5.57;;;1.80;;
30378;SDS011;17168;49.164;9.060;2022-08-05T12:05:58;4.03;;;1.42;;
30378;SDS011;17168;49.164;9.060;2022-08-05T12:08:27;2.75;;;1.60;;
30378;SDS011;17168;49.164;9.060;2022-08-05T12:10:57;4.90;;;1.48;;
30378;SDS011;17168;49.164;9.060;2022-08-05T12:13:32;10.23;;;1.73;;
30378;SDS011;17168;49.164;9.060;2022-08-05T12:16:16;2.17;;;1.38;;
30378;SDS011;17168;49.164;9.060;2022-08-05T12:18:44;2.30;;;1.33;;
30378;SDS011;17168;49.164;9.060;2022-08-05T12:21:18;4.68;;;1.55;;
30378;SDS011;17168;49.164;9.060;2022-08-05T12:23:52;2.03;;;1.23;;
30378;SDS011;17168;49.164;9.060;2022-08-05T12:26:29;2.22;;;1.48;;
30378;SDS011;17168;49.164;9.060;2022-08-05T12:28:58;12.38;;;1.48;;
30378;SDS011;17168;49.164;9.060;2022-08-05T12:31:29;2.43;;;1.50;;
30378;SDS011;17168;49.164;9.060;2022-08-05T12:36:50;6.75;;;1.80;;
30378;SDS011;17168;49.164;9.060;2022-08-05T12:39:18;2.53;;;1.65;;
30378;SDS011;17168;49.164;9.060;2022-08-05T12:41:46;4.20;;;1.58;;
30378;SDS011;17168;49.164;9.060;2022-08-05T12:44:15;2.72;;;1.48;;
30378;SDS011;17168;49.164;9.060;2022-08-05T12:46:59;5.03;;;1.35;;
30378;SDS011;17168;49.164;9.060;2022-08-05T12:49:37;2.95;;;1.60;;
30378;SDS011;17168;49.164;9.060;2022-08-05T12:52:25;4.72;;;1.60;;
30378;SDS011;17168;49.164;9.060;2022-08-05T12:55:14;4.05;;;1.30;;
30378;SDS011;17168;49.164;9.060;2022-08-05T12:57:47;1.92;;;1.58;;
30378;SDS011;17168;49.164;9.060;2022-08-05T13:00:41;2.00;;;1.35;;
30378;SDS011;17168;49.164;9.060;2022-08-05T13:03:29;2.00;;;1.57;;
30378;SDS011;17168;49.164;9.060;2022-08-05T13:05:58;1.70;;;1.30;;
30378;SDS011;17168;49.164;9.060;2022-08-05T13:08:26;4.82;;;1.60;;
30378;SDS011;17168;49.164;9.060;2022-08-05T13:10:57;6.35;;;1.50;;
30378;SDS011;17168;49.164;9.060;2022-08-05T13:13:25;5.00;;;1.48;;
30378;SDS011;17168;49.164;9.060;2022-08-05T13:16:14;3.60;;;1.50;;
30378;SDS011;17168;49.164;9.060;2022-08-05T13:18:49;4.07;;;1.60;;
30378;SDS011;17168;49.164;9.060;2022-08-05T13:21:16;2.28;;;1.20;;
30378;SDS011;17168;49.164;9.060;2022-08-05T13:23:43;3.25;;;1.40;;
30378;SDS011;17168;49.164;9.060;2022-08-05T13:26:17;6.93;;;1.55;;
30378;SDS011;17168;49.164;9.060;2022-08-05T13:28:55;5.50;;;1.60;;
30378;SDS011;17168;49.164;9.060;2022-08-05T13:31:23;5.97;;;1.70;;
30378;SDS011;17168;49.164;9.060;2022-08-05T13:34:10;1.80;;;1.70;;
30378;SDS011;17168;49.164;9.060;2022-08-05T13:36:50;1.73;;;1.63;;
30378;SDS011;17168;49.164;9.060;2022-08-05T13:39:17;3.50;;;2.05;;
30378;SDS011;17168;49.164;9.060;2022-08-05T13:42:04;5.07;;;2.17;;
30378;SDS011;17168;49.164;9.060;2022-08-05T13:44:31;2.72;;;2.00;;
30378;SDS011;17168;49.164;9.060;2022-08-05T13:47:01;6.53;;;2.22;;
30378;SDS011;17168;49.164;9.060;2022-08-05T13:49:34;7.50;;;2.30;;
30378;SDS011;17168;49.164;9.060;2022-08-05T13:52:08;5.55;;;2.60;;
30378;SDS011;17168;49.164;9.060;2022-08-05T13:54:36;8.43;;;2.75;;
30378;SDS011;17168;49.164;9.060;2022-08-05T13:57:04;5.35;;;3.10;;
30378;SDS011;17168;49.164;9.060;2022-08-05T13:59:45;13.77;;;3.15;;
30378;SDS011;17168;49.164;9.060;2022-08-05T14:02:26;20.02;;;5.25;;
30378;SDS011;17168;49.164;9.060;2022-08-05T14:04:56;6.45;;;2.95;;
30378;SDS011;17168;49.164;9.060;2022-08-05T14:07:38;3.33;;;2.60;;
30378;SDS011;17168;49.164;9.060;2022-08-05T14:10:26;2.33;;;2.10;;
30378;SDS011;17168;49.164;9.060;2022-08-05T14:12:56;3.55;;;2.15;;
30378;SDS011;17168;49.164;9.060;2022-08-05T14:15:24;2.78;;;2.10;;
30378;SDS011;17168;49.164;9.060;2022-08-05T14:18:13;9.63;;;2.20;;
30378;SDS011;17168;49.164;9.060;2022-08-05T14:20:48;7.60;;;2.25;;
30378;SDS011;17168;49.164;9.060;2022-08-05T14:23:20;4.72;;;2.30;;
30378;SDS011;17168;49.164;9.060;2022-08-05T14:25:52;3.70;;;2.10;;
30378;SDS011;17168;49.164;9.060;2022-08-05T14:28:23;10.10;;;2.33;;
30378;SDS011;17168;49.164;9.060;2022-08-05T14:30:52;4.13;;;2.00;;
30378;SDS011;17168;49.164;9.060;2022-08-05T14:33:20;7.80;;;2.25;;
30378;SDS011;17168;49.164;9.060;2022-08-05T14:35:49;3.85;;;2.03;;
30378;SDS011;17168;49.164;9.060;2022-08-05T14:38:19;4.30;;;2.40;;
30378;SDS011;17168;49.164;9.060;2022-08-05T14:41:01;7.72;;;2.30;;
30378;SDS011;17168;49.164;9.060;2022-08-05T14:43:32;2.33;;;2.13;;
30378;SDS011;17168;49.164;9.060;2022-08-05T14:46:20;6.65;;;2.42;;
30378;SDS011;17168;49.164;9.060;2022-08-05T14:48:48;3.92;;;2.30;;
30378;SDS011;17168;49.164;9.060;2022-08-05T14:51:18;3.20;;;2.38;;
30378;SDS011;17168;49.164;9.060;2022-08-05T14:53:45;3.47;;;2.50;;
30378;SDS011;17168;49.164;9.060;2022-08-05T14:56:32;3.63;;;2.20;;
30378;SDS011;17168;49.164;9.060;2022-08-05T14:59:03;3.10;;;2.30;;
30378;SDS011;17168;49.164;9.060;2022-08-05T15:01:30;4.32;;;2.42;;
30378;SDS011;17168;49.164;9.060;2022-08-05T15:04:15;5.43;;;2.22;;
30378;SDS011;17168;49.164;9.060;2022-08-05T15:06:47;5.20;;;2.40;;
30378;SDS011;17168;49.164;9.060;2022-08-05T15:09:15;5.32;;;2.40;;
30378;SDS011;17168;49.164;9.060;2022-08-05T15:12:02;4.72;;;2.25;;
30378;SDS011;17168;49.164;9.060;2022-08-05T15:14:29;3.30;;;2.30;;
30378;SDS011;17168;49.164;9.060;2022-08-05T15:17:08;6.53;;;2.60;;
30378;SDS011;17168;49.164;9.060;2022-08-05T15:19:56;5.40;;;2.60;;
30378;SDS011;17168;49.164;9.060;2022-08-05T15:22:23;5.75;;;2.10;;
30378;SDS011;17168;49.164;9.060;2022-08-05T15:24:53;2.80;;;2.25;;
30378;SDS011;17168;49.164;9.060;2022-08-05T15:27:19;5.00;;;2.85;;
30378;SDS011;17168;49.164;9.060;2022-08-05T15:29:50;5.22;;;2.42;;
30378;SDS011;17168;49.164;9.060;2022-08-05T15:32:19;2.60;;;2.20;;
30378;SDS011;17168;49.164;9.060;2022-08-05T15:34:52;3.53;;;2.42;;
30378;SDS011;17168;49.164;9.060;2022-08-05T15:37:21;4.20;;;2.38;;
30378;SDS011;17168;49.164;9.060;2022-08-05T15:40:08;5.32;;;2.13;;
30378;SDS011;17168;49.164;9.060;2022-08-05T15:42:56;6.60;;;2.45;;
30378;SDS011;17168;49.164;9.060;2022-08-05T15:45:41;2.08;;;1.80;;
30378;SDS011;17168;49.164;9.060;2022-08-05T15:48:11;6.82;;;2.30;;
30378;SDS011;17168;49.164;9.060;2022-08-05T15:50:39;6.63;;;3.53;;
30378;SDS011;17168;49.164;9.060;2022-08-05T15:53:10;4.00;;;2.13;;
30378;SDS011;17168;49.164;9.060;2022-08-05T15:55:38;4.63;;;2.28;;